Flight Track Log - Related Links

Times and Time Zones

All times are in EDT time to prevent confusion due to time zone crossing. See the UAL4108 flight status page for this flight to view local times or setup timezone preferences in your user account.

Time Position Orientation Groundspeed Altitude Reporting Facility
EDT Latitude Longitude Course Direction KTS MPH feet Rate Location/Type
Thu 08:13:58 PM 34.7178 -92.2469 179° South 160 184 900  Level Memphis Center
Thu 08:15:05 PM 34.6594 -92.2458 179° South 205 236 3,600 2,504 Climbing Memphis Center
Thu 08:16:05 PM 34.5947 -92.2392 175° South 260 299 6,200 2,625 Climbing Memphis Center
Thu 08:16:57 PM 34.5303 -92.2228 168° South 275 316 8,500 2,357 Climbing Memphis Center
Thu 08:17:57 PM 34.4508 -92.2261 182° South 290 334 10,600 1,550 Climbing Memphis Center
Thu 08:18:57 PM 34.3569 -92.2392 187° South 307 353 11,600 1,350 Climbing Memphis Center
Thu 08:19:57 PM 34.2564 -92.2594 189° South 346 398 13,300 1,700 Climbing Memphis Center
Thu 08:20:57 PM 34.1497 -92.2822 190° South 374 430 15,000 1,650 Climbing Memphis Center
Thu 08:21:57 PM 34.0533 -92.3025 190° South 386 444 16,600 1,500 Climbing Memphis Center
Thu 08:22:57 PM 33.9486 -92.3203 188° South 386 444 18,000 1,628 Climbing Memphis Center
Thu 08:24:06 PM 33.8164 -92.3436 188° South 390 449 20,100 1,767 Climbing Fort Worth Center
Thu 08:25:06 PM 33.7128 -92.3622 188° South 390 449 21,800 950 Climbing Fort Worth Center
Thu 08:26:06 PM 33.6011 -92.3836 189° South 395 455 22,000 100 Climbing Fort Worth Center
Thu 08:27:06 PM 33.4808 -92.4053 189° South 413 475 22,000  Level Fort Worth Center
Thu 08:28:06 PM 33.3606 -92.4272 189° South 430 495 22,000  Level Fort Worth Center
Thu 08:29:06 PM 33.2425 -92.4486 189° South 436 502 22,000  Level Fort Worth Center
Thu 08:30:06 PM 33.1183 -92.4706 188° South 441 507 22,000  Level Fort Worth Center
Thu 08:31:06 PM 32.9981 -92.4919 188° South 446 513 22,000  Level Fort Worth Center
Thu 08:32:06 PM 32.8778 -92.5111 188° South 441 507 22,000  Level Fort Worth Center
Thu 08:33:06 PM 32.7556 -92.5350 189° South 446 513 22,000  Level Fort Worth Center
Thu 08:34:06 PM 32.6331 -92.5564 188° South 446 513 22,000  Level Fort Worth Center
Thu 08:36:33 PM 32.3456 -92.6103 189° South 442 509 22,000  Level Houston Center
Thu 08:37:35 PM 32.2239 -92.6333 189° South 443 510 22,000  Level Houston Center
Thu 08:38:37 PM 32.1019 -92.6547 188° South 443 510 22,000  Level Houston Center
Thu 08:39:39 PM 31.9600 -92.6936 193° South 438 504 22,000  Level Houston Center
Thu 08:40:41 PM 31.8669 -92.7806 218° Southwest 422 486 22,000  Level Houston Center
Thu 08:41:43 PM 31.7778 -92.8669 219° Southwest 420 483 22,000  Level Houston Center
Thu 08:42:45 PM 31.6864 -92.9553 219° Southwest 426 490 22,000  Level Houston Center
Thu 08:43:47 PM 31.5953 -93.0442 220° Southwest 428 493 22,000  Level Houston Center
Thu 08:44:49 PM 31.5033 -93.1317 219° Southwest 429 494 22,000  Level Houston Center
Thu 08:45:51 PM 31.3939 -93.2375 220° Southwest 429 494 22,000  Level Houston Center
Thu 08:46:53 PM 31.3006 -93.3244 219° Southwest 430 495 22,000  Level Houston Center
Thu 08:47:54 PM 31.2044 -93.4158 219° Southwest 429 494 22,000  Level Houston Center
Thu 08:48:56 PM 31.1139 -93.5031 220° Southwest 426 490 22,000  Level Houston Center
Thu 08:49:58 PM 31.0219 -93.5900 219° Southwest 427 491 22,000  Level Houston Center
Thu 08:51:00 PM 30.9306 -93.6756 219° Southwest 424 488 22,000  Level Houston Center
Thu 08:52:02 PM 30.8411 -93.7600 219° Southwest 419 482 22,000  Level Houston Center
Thu 08:53:03 PM 30.7347 -93.8625 220° Southwest 418 481 22,000  Level Houston Center
Thu 08:54:05 PM 30.6433 -93.9475 219° Southwest 423 487 22,000 -774 Level Houston Center
Thu 08:55:07 PM 30.5539 -94.0306 219° Southwest 417 480 20,400 -1,887 Descending Houston Center
Thu 08:56:09 PM 30.4667 -94.1122 219° Southwest 408 470 18,100 -2,098 Descending Houston Center
Thu 08:57:10 PM 30.3833 -94.1900 219° Southwest 389 448 16,100 -2,388 Descending Houston Center
Thu 08:57:52 PM 30.3097 -94.2578 218° Southwest 385 443 14,000 -2,710 Descending Houston Center
Thu 08:58:12 PM 30.2842 -94.2825 220° Southwest 385 443 13,300 -1,839 Descending Houston Center
Thu 08:58:54 PM 30.2328 -94.3308 219° Southwest 346 398 12,100 -1,258 Descending Houston Center
Thu 08:59:14 PM 30.2100 -94.3533 220° Southwest 349 402 12,000 -98 Descending Houston Center
Thu 08:59:55 PM 30.1869 -94.4192 248° West 328 377 12,000  Level Houston Center
Thu 09:00:16 PM 30.1825 -94.4525 261° West 330 380 12,000 -393 Level Houston Center
Thu 09:00:56 PM 30.1681 -94.5281 258° West 326 375 11,600 -871 Descending Houston Center
Thu 09:01:18 PM 30.1642 -94.5611 262° West 324 373 11,100 -1,574 Descending Houston Center
Thu 09:01:57 PM 30.1525 -94.6267 258° West 297 342 10,000 -1,452 Descending Houston Center
Thu 09:02:20 PM 30.1481 -94.6547 260° West 302 348 9,600 -1,672 Descending Houston Center
Thu 09:02:58 PM 30.1356 -94.7136 256° West 279 321 8,300 -1,770 Descending Houston Center
Thu 09:03:21 PM 30.1336 -94.7411 265° West 279 321 7,800 -1,869 Descending Houston Center
Thu 09:03:59 PM 30.1231 -94.7997 258° West 275 316 6,400 -1,645 Descending Houston Center
Thu 09:04:23 PM 30.1186 -94.8272 259° West 275 316 6,100 -429 Descending Houston Center
Thu 09:04:55 PM 30.1075 -94.8792 256° West 273 314 6,000  Descending Houston Center
Thu 09:05:25 PM 30.1044 -94.9139 264° West 276 318 6,100  Climbing Houston Center
Thu 09:06:02 PM 30.1050 -94.9856 271° West 286 329 6,000  Descending Houston Center
Thu 09:06:26 PM 30.1056 -95.0058 272° West 287 330 6,100  Climbing Houston Center
Thu 09:06:57 PM 30.1064 -95.0675 271° West 283 326 6,000 -97 Descending Houston Center
Thu 09:07:28 PM 30.1058 -95.1131 269° West 280 322 6,000  Level Houston Center
Thu 09:08:30 PM 30.1064 -95.1978 270° West 268 308 6,000 49 Level Houston Center
Thu 09:09:31 PM 30.1069 -95.2719 271° West 237 273 6,100  Climbing Houston Center
Thu 09:09:54 PM 30.1072 -95.3042 271° West 237 273 6,000  Descending Houston Center
Thu 09:10:33 PM 30.1072 -95.3472 270° West 237 273 6,100 -420 Climbing Houston Center
Thu 09:11:34 PM 30.1069 -95.4211 270° West 233 268 5,300 -1,125 Descending Houston Center
Thu 09:12:09 PM 30.1061 -95.4758 269° West 231 266 4,300 -1,258 Descending Houston Center
Thu 09:12:36 PM 30.1069 -95.4950 273° West 231 266 4,000 -1,200 Descending Houston Center
Thu 09:13:09 PM 30.0997 -95.5467 261° West 225 259 3,100 -984 Descending Houston Center
Thu 09:13:37 PM 30.0867 -95.5542 206° Southwest 236 272 3,000 -97 Descending Houston Center
Thu 09:14:11 PM 30.0417 -95.5536 179° South 216 249 3,000 -97 Level Houston Center
Thu 09:14:39 PM 30.0203 -95.5397 151° Southeast 212 244 2,900 -393 Descending Houston Center
Thu 09:15:12 PM 30.0064 -95.5119 120° Southeast 194 223 2,600 -545 Descending Houston Center

Login

Don't have an account? Register now (free) for customized features, flight alerts, and more!